sensor_id;sensor_type;location;lat;lon;timestamp;pressure;altitude;pressure_sealevel;temperature;humidity
23303;BME280;11820;48.738;9.092;2023-04-05T00:01:04;96803.78;;;4.01;nan
23303;BME280;11820;48.738;9.092;2023-04-05T00:03:32;96798.88;;;3.71;nan
23303;BME280;11820;48.738;9.092;2023-04-05T00:05:57;96796.91;;;3.37;nan
23303;BME280;11820;48.738;9.092;2023-04-05T00:08:23;96794.56;;;3.72;nan
23303;BME280;11820;48.738;9.092;2023-04-05T00:10:49;96795.25;;;3.55;nan
23303;BME280;11820;48.738;9.092;2023-04-05T00:13:15;96788.81;;;3.51;nan
23303;BME280;11820;48.738;9.092;2023-04-05T00:15:40;96792.00;;;3.62;nan
23303;BME280;11820;48.738;9.092;2023-04-05T00:18:06;96783.66;;;3.70;nan
23303;BME280;11820;48.738;9.092;2023-04-05T00:20:31;96794.97;;;3.67;nan
23303;BME280;11820;48.738;9.092;2023-04-05T00:22:58;96783.25;;;3.74;nan
23303;BME280;11820;48.738;9.092;2023-04-05T00:25:24;96773.47;;;3.60;nan
23303;BME280;11820;48.738;9.092;2023-04-05T00:27:49;96776.19;;;3.40;nan
23303;BME280;11820;48.738;9.092;2023-04-05T00:30:14;96777.25;;;3.47;nan
23303;BME280;11820;48.738;9.092;2023-04-05T00:32:48;96769.41;;;3.67;nan
23303;BME280;11820;48.738;9.092;2023-04-05T00:35:15;96769.94;;;3.71;nan
23303;BME280;11820;48.738;9.092;2023-04-05T00:37:40;96767.25;;;3.72;nan
23303;BME280;11820;48.738;9.092;2023-04-05T00:40:06;96758.44;;;3.84;nan
23303;BME280;11820;48.738;9.092;2023-04-05T00:42:32;96762.75;;;3.47;nan
23303;BME280;11820;48.738;9.092;2023-04-05T00:44:57;96757.22;;;3.42;nan
23303;BME280;11820;48.738;9.092;2023-04-05T00:47:22;96761.06;;;3.65;nan
23303;BME280;11820;48.738;9.092;2023-04-05T00:49:48;96752.16;;;3.69;nan
23303;BME280;11820;48.738;9.092;2023-04-05T00:52:14;96747.88;;;3.70;nan
23303;BME280;11820;48.738;9.092;2023-04-05T00:54:39;96745.59;;;3.67;nan
23303;BME280;11820;48.738;9.092;2023-04-05T00:57:07;96747.75;;;3.71;nan
23303;BME280;11820;48.738;9.092;2023-04-05T00:59:33;96741.69;;;3.72;nan
23303;BME280;11820;48.738;9.092;2023-04-05T01:02:13;96742.22;;;3.66;nan
23303;BME280;11820;48.738;9.092;2023-04-05T01:04:43;96729.56;;;3.74;nan
23303;BME280;11820;48.738;9.092;2023-04-05T01:09:56;96729.66;;;3.82;nan
23303;BME280;11820;48.738;9.092;2023-04-05T01:12:24;96724.41;;;3.84;nan
23303;BME280;11820;48.738;9.092;2023-04-05T01:14:52;96724.63;;;3.90;nan
23303;BME280;11820;48.738;9.092;2023-04-05T01:17:19;96719.63;;;3.98;nan
23303;BME280;11820;48.738;9.092;2023-04-05T01:19:49;96718.78;;;3.80;nan
23303;BME280;11820;48.738;9.092;2023-04-05T01:25:10;96721.22;;;3.72;nan
23303;BME280;11820;48.738;9.092;2023-04-05T01:30:36;96710.41;;;3.51;nan
23303;BME280;11820;48.738;9.092;2023-04-05T01:38:45;96703.53;;;3.42;nan
23303;BME280;11820;48.738;9.092;2023-04-05T01:41:13;96696.00;;;3.50;nan
23303;BME280;11820;48.738;9.092;2023-04-05T01:43:38;96707.16;;;3.59;nan
23303;BME280;11820;48.738;9.092;2023-04-05T01:46:04;96704.09;;;3.46;nan
23303;BME280;11820;48.738;9.092;2023-04-05T01:48:29;96712.03;;;3.43;nan
23303;BME280;11820;48.738;9.092;2023-04-05T01:50:54;96703.78;;;3.58;nan
23303;BME280;11820;48.738;9.092;2023-04-05T01:53:20;96698.84;;;3.47;nan
23303;BME280;11820;48.738;9.092;2023-04-05T01:55:45;96699.31;;;3.60;nan
23303;BME280;11820;48.738;9.092;2023-04-05T01:58:11;96699.00;;;3.36;nan
23303;BME280;11820;48.738;9.092;2023-04-05T02:00:36;96701.56;;;3.27;nan
23303;BME280;11820;48.738;9.092;2023-04-05T02:03:01;96696.03;;;3.41;nan
23303;BME280;11820;48.738;9.092;2023-04-05T02:05:27;96697.94;;;3.29;nan
23303;BME280;11820;48.738;9.092;2023-04-05T02:07:52;96693.13;;;3.26;nan
23303;BME280;11820;48.738;9.092;2023-04-05T02:10:17;96690.69;;;3.15;nan
23303;BME280;11820;48.738;9.092;2023-04-05T02:12:43;96693.88;;;3.36;nan
23303;BME280;11820;48.738;9.092;2023-04-05T02:15:09;96683.84;;;3.25;nan
23303;BME280;11820;48.738;9.092;2023-04-05T02:17:34;96686.81;;;3.21;nan
23303;BME280;11820;48.738;9.092;2023-04-05T02:20:08;96683.25;;;3.41;nan
23303;BME280;11820;48.738;9.092;2023-04-05T02:22:34;96677.22;;;3.32;nan
23303;BME280;11820;48.738;9.092;2023-04-05T02:25:01;96679.06;;;3.49;nan
23303;BME280;11820;48.738;9.092;2023-04-05T02:27:27;96678.34;;;3.20;nan
23303;BME280;11820;48.738;9.092;2023-04-05T02:29:53;96672.44;;;3.01;nan
23303;BME280;11820;48.738;9.092;2023-04-05T02:32:19;96671.34;;;3.22;nan
23303;BME280;11820;48.738;9.092;2023-04-05T02:34:45;96672.81;;;3.15;nan
23303;BME280;11820;48.738;9.092;2023-04-05T02:37:10;96679.59;;;2.98;nan
23303;BME280;11820;48.738;9.092;2023-04-05T02:39:35;96677.84;;;2.89;nan
23303;BME280;11820;48.738;9.092;2023-04-05T02:42:01;96675.69;;;3.03;nan
23303;BME280;11820;48.738;9.092;2023-04-05T02:44:27;96677.00;;;3.16;nan
23303;BME280;11820;48.738;9.092;2023-04-05T02:46:52;96676.63;;;2.93;nan
23303;BME280;11820;48.738;9.092;2023-04-05T02:49:17;96677.31;;;2.95;nan
23303;BME280;11820;48.738;9.092;2023-04-05T02:51:43;96672.59;;;3.00;nan
23303;BME280;11820;48.738;9.092;2023-04-05T02:54:08;96670.84;;;2.91;nan
23303;BME280;11820;48.738;9.092;2023-04-05T02:56:33;96677.84;;;2.89;nan
23303;BME280;11820;48.738;9.092;2023-04-05T02:58:59;96671.97;;;2.79;nan
23303;BME280;11820;48.738;9.092;2023-04-05T03:01:24;96676.38;;;2.96;nan
23303;BME280;11820;48.738;9.092;2023-04-05T03:03:50;96678.94;;;2.67;nan
23303;BME280;11820;48.738;9.092;2023-04-05T03:06:15;96676.28;;;2.69;nan
23303;BME280;11820;48.738;9.092;2023-04-05T03:08:41;96671.69;;;2.82;nan
23303;BME280;11820;48.738;9.092;2023-04-05T03:11:08;96669.28;;;2.71;nan
23303;BME280;11820;48.738;9.092;2023-04-05T03:13:34;96668.47;;;2.80;nan
23303;BME280;11820;48.738;9.092;2023-04-05T03:16:00;96671.13;;;2.88;nan
23303;BME280;11820;48.738;9.092;2023-04-05T03:18:25;96673.84;;;2.77;nan
23303;BME280;11820;48.738;9.092;2023-04-05T03:20:52;96666.06;;;2.59;nan
23303;BME280;11820;48.738;9.092;2023-04-05T03:23:25;96670.75;;;2.35;nan
23303;BME280;11820;48.738;9.092;2023-04-05T03:25:57;96672.50;;;2.35;nan
23303;BME280;11820;48.738;9.092;2023-04-05T03:28:23;96664.19;;;2.42;nan
23303;BME280;11820;48.738;9.092;2023-04-05T03:30:48;96657.59;;;2.59;nan
23303;BME280;11820;48.738;9.092;2023-04-05T03:33:14;96662.56;;;2.51;nan
23303;BME280;11820;48.738;9.092;2023-04-05T03:35:39;96671.44;;;2.47;nan
23303;BME280;11820;48.738;9.092;2023-04-05T03:38:05;96664.31;;;2.22;nan
23303;BME280;11820;48.738;9.092;2023-04-05T03:40:31;96662.81;;;2.19;nan
23303;BME280;11820;48.738;9.092;2023-04-05T03:42:56;96666.41;;;2.17;nan
23303;BME280;11820;48.738;9.092;2023-04-05T03:45:21;96664.56;;;2.28;nan
23303;BME280;11820;48.738;9.092;2023-04-05T03:47:47;96658.94;;;2.25;nan
23303;BME280;11820;48.738;9.092;2023-04-05T03:50:12;96665.75;;;2.15;nan
23303;BME280;11820;48.738;9.092;2023-04-05T03:52:37;96672.19;;;2.00;nan
23303;BME280;11820;48.738;9.092;2023-04-05T03:55:03;96665.06;;;1.94;nan
23303;BME280;11820;48.738;9.092;2023-04-05T03:57:29;96661.44;;;1.96;nan
23303;BME280;11820;48.738;9.092;2023-04-05T03:59:55;96662.63;;;1.92;nan
23303;BME280;11820;48.738;9.092;2023-04-05T04:02:20;96665.34;;;2.10;nan
23303;BME280;11820;48.738;9.092;2023-04-05T04:04:46;96659.31;;;2.11;nan
23303;BME280;11820;48.738;9.092;2023-04-05T04:07:12;96661.97;;;2.00;nan
23303;BME280;11820;48.738;9.092;2023-04-05T04:09:37;96656.63;;;2.12;nan
23303;BME280;11820;48.738;9.092;2023-04-05T04:12:03;96659.72;;;2.06;nan
23303;BME280;11820;48.738;9.092;2023-04-05T04:14:28;96662.78;;;2.10;nan
23303;BME280;11820;48.738;9.092;2023-04-05T04:16:53;96659.03;;;2.14;nan
23303;BME280;11820;48.738;9.092;2023-04-05T04:19:19;96656.72;;;1.82;nan
23303;BME280;11820;48.738;9.092;2023-04-05T04:21:44;96662.88;;;1.80;nan
23303;BME280;11820;48.738;9.092;2023-04-05T04:24:10;96666.94;;;1.92;nan
23303;BME280;11820;48.738;9.092;2023-04-05T04:26:46;96665.31;;;1.81;nan
23303;BME280;11820;48.738;9.092;2023-04-05T04:29:13;96664.38;;;1.52;nan
23303;BME280;11820;48.738;9.092;2023-04-05T04:31:41;96658.41;;;1.33;nan
23303;BME280;11820;48.738;9.092;2023-04-05T04:34:09;96658.75;;;1.49;nan
23303;BME280;11820;48.738;9.092;2023-04-05T04:36:35;96659.06;;;1.65;nan
23303;BME280;11820;48.738;9.092;2023-04-05T04:39:03;96654.47;;;1.59;nan
23303;BME280;11820;48.738;9.092;2023-04-05T04:41:31;96660.97;;;1.72;nan
23303;BME280;11820;48.738;9.092;2023-04-05T04:43:58;96658.72;;;1.79;nan
23303;BME280;11820;48.738;9.092;2023-04-05T04:46:27;96656.78;;;1.62;nan
23303;BME280;11820;48.738;9.092;2023-04-05T04:48:55;96657.81;;;1.50;nan
23303;BME280;11820;48.738;9.092;2023-04-05T04:51:22;96654.41;;;1.70;nan
23303;BME280;11820;48.738;9.092;2023-04-05T04:53:47;96653.31;;;1.72;nan
23303;BME280;11820;48.738;9.092;2023-04-05T04:56:12;96665.41;;;1.80;nan
23303;BME280;11820;48.738;9.092;2023-04-05T04:58:38;96664.00;;;1.57;nan
23303;BME280;11820;48.738;9.092;2023-04-05T05:01:09;96669.16;;;1.76;nan
23303;BME280;11820;48.738;9.092;2023-04-05T05:03:35;96661.91;;;1.71;nan
23303;BME280;11820;48.738;9.092;2023-04-05T05:06:02;96663.91;;;1.68;nan
23303;BME280;11820;48.738;9.092;2023-04-05T05:08:29;96676.97;;;1.84;nan
23303;BME280;11820;48.738;9.092;2023-04-05T05:10:54;96673.59;;;1.74;nan
23303;BME280;11820;48.738;9.092;2023-04-05T05:13:20;96674.75;;;1.60;nan
23303;BME280;11820;48.738;9.092;2023-04-05T05:15:45;96672.53;;;1.47;nan
23303;BME280;11820;48.738;9.092;2023-04-05T05:18:10;96678.41;;;1.77;nan
23303;BME280;11820;48.738;9.092;2023-04-05T05:20:39;96685.75;;;1.31;nan
23303;BME280;11820;48.738;9.092;2023-04-05T05:23:05;96682.72;;;1.47;nan
23303;BME280;11820;48.738;9.092;2023-04-05T05:25:30;96683.34;;;1.39;nan
23303;BME280;11820;48.738;9.092;2023-04-05T05:27:56;96676.88;;;1.65;nan
23303;BME280;11820;48.738;9.092;2023-04-05T05:30:21;96672.88;;;1.62;nan
23303;BME280;11820;48.738;9.092;2023-04-05T05:32:47;96674.59;;;1.92;nan
23303;BME280;11820;48.738;9.092;2023-04-05T05:35:12;96673.22;;;1.88;nan
23303;BME280;11820;48.738;9.092;2023-04-05T05:37:38;96666.84;;;2.22;nan
23303;BME280;11820;48.738;9.092;2023-04-05T05:40:04;96665.50;;;2.18;nan
23303;BME280;11820;48.738;9.092;2023-04-05T05:42:30;96666.69;;;2.04;nan
23303;BME280;11820;48.738;9.092;2023-04-05T05:45:02;96670.59;;;2.08;nan
23303;BME280;11820;48.738;9.092;2023-04-05T05:47:27;96663.59;;;2.01;nan
23303;BME280;11820;48.738;9.092;2023-04-05T05:49:52;96656.38;;;2.25;nan
23303;BME280;11820;48.738;9.092;2023-04-05T05:52:18;96665.22;;;2.40;nan
23303;BME280;11820;48.738;9.092;2023-04-05T05:54:43;96665.13;;;2.51;nan
23303;BME280;11820;48.738;9.092;2023-04-05T05:57:08;96672.22;;;2.57;nan
23303;BME280;11820;48.738;9.092;2023-04-05T05:59:34;96662.00;;;2.85;nan
23303;BME280;11820;48.738;9.092;2023-04-05T06:01:59;96660.97;;;2.69;nan
23303;BME280;11820;48.738;9.092;2023-04-05T06:04:25;96662.03;;;2.76;nan
23303;BME280;11820;48.738;9.092;2023-04-05T06:06:51;96664.97;;;2.71;nan
23303;BME280;11820;48.738;9.092;2023-04-05T06:09:16;96670.63;;;2.75;nan
23303;BME280;11820;48.738;9.092;2023-04-05T06:11:42;96665.41;;;2.57;nan
23303;BME280;11820;48.738;9.092;2023-04-05T06:14:07;96668.63;;;2.50;nan
23303;BME280;11820;48.738;9.092;2023-04-05T06:16:33;96665.13;;;2.70;nan
23303;BME280;11820;48.738;9.092;2023-04-05T06:18:59;96674.50;;;2.79;nan
23303;BME280;11820;48.738;9.092;2023-04-05T06:21:25;96670.84;;;3.00;nan
23303;BME280;11820;48.738;9.092;2023-04-05T06:23:51;96664.13;;;2.99;nan
23303;BME280;11820;48.738;9.092;2023-04-05T06:26:21;96675.94;;;3.10;nan
23303;BME280;11820;48.738;9.092;2023-04-05T06:28:48;96668.13;;;3.20;nan
23303;BME280;11820;48.738;9.092;2023-04-05T06:31:15;96671.06;;;3.25;nan
23303;BME280;11820;48.738;9.092;2023-04-05T06:33:42;96672.25;;;3.31;nan
23303;BME280;11820;48.738;9.092;2023-04-05T06:36:07;96672.50;;;3.37;nan
23303;BME280;11820;48.738;9.092;2023-04-05T06:38:33;96669.16;;;3.37;nan
23303;BME280;11820;48.738;9.092;2023-04-05T06:40:58;96667.91;;;3.50;nan
23303;BME280;11820;48.738;9.092;2023-04-05T06:43:23;96671.13;;;3.52;nan
23303;BME280;11820;48.738;9.092;2023-04-05T06:45:49;96677.56;;;3.56;nan
23303;BME280;11820;48.738;9.092;2023-04-05T06:48:15;96676.03;;;3.63;nan
23303;BME280;11820;48.738;9.092;2023-04-05T06:50:40;96677.66;;;3.64;nan
23303;BME280;11820;48.738;9.092;2023-04-05T06:53:05;96674.44;;;3.62;nan
23303;BME280;11820;48.738;9.092;2023-04-05T06:55:32;96674.31;;;3.64;nan
23303;BME280;11820;48.738;9.092;2023-04-05T06:57:57;96673.69;;;3.79;nan
23303;BME280;11820;48.738;9.092;2023-04-05T07:00:22;96671.59;;;3.92;nan
23303;BME280;11820;48.738;9.092;2023-04-05T07:02:48;96675.25;;;3.90;nan
23303;BME280;11820;48.738;9.092;2023-04-05T07:05:14;96670.84;;;3.82;nan
23303;BME280;11820;48.738;9.092;2023-04-05T07:07:40;96672.84;;;4.06;nan
23303;BME280;11820;48.738;9.092;2023-04-05T07:10:07;96677.63;;;4.18;nan
23303;BME280;11820;48.738;9.092;2023-04-05T07:12:33;96675.59;;;4.22;nan
23303;BME280;11820;48.738;9.092;2023-04-05T07:14:59;96678.16;;;4.22;nan
23303;BME280;11820;48.738;9.092;2023-04-05T07:17:24;96686.72;;;4.30;nan
23303;BME280;11820;48.738;9.092;2023-04-05T07:19:50;96681.91;;;4.27;nan
23303;BME280;11820;48.738;9.092;2023-04-05T07:22:15;96674.59;;;4.32;nan
23303;BME280;11820;48.738;9.092;2023-04-05T07:24:40;96682.72;;;4.01;nan
23303;BME280;11820;48.738;9.092;2023-04-05T07:27:06;96676.56;;;4.21;nan
23303;BME280;11820;48.738;9.092;2023-04-05T07:29:31;96676.34;;;4.32;nan
23303;BME280;11820;48.738;9.092;2023-04-05T07:31:59;96674.06;;;4.11;nan
23303;BME280;11820;48.738;9.092;2023-04-05T07:34:24;96671.59;;;4.37;nan
23303;BME280;11820;48.738;9.092;2023-04-05T07:36:51;96676.25;;;4.24;nan
23303;BME280;11820;48.738;9.092;2023-04-05T07:39:16;96676.19;;;4.33;nan
23303;BME280;11820;48.738;9.092;2023-04-05T07:41:42;96672.34;;;4.02;nan
23303;BME280;11820;48.738;9.092;2023-04-05T07:44:07;96676.63;;;4.29;nan
23303;BME280;11820;48.738;9.092;2023-04-05T07:46:33;96677.69;;;4.53;nan
23303;BME280;11820;48.738;9.092;2023-04-05T07:48:59;96684.72;;;4.51;nan
23303;BME280;11820;48.738;9.092;2023-04-05T07:51:24;96677.81;;;4.34;nan
23303;BME280;11820;48.738;9.092;2023-04-05T07:53:50;96685.19;;;4.37;nan
23303;BME280;11820;48.738;9.092;2023-04-05T07:56:15;96685.59;;;4.60;nan
23303;BME280;11820;48.738;9.092;2023-04-05T07:58:41;96683.66;;;4.79;nan
23303;BME280;11820;48.738;9.092;2023-04-05T08:01:08;96678.00;;;4.93;nan
23303;BME280;11820;48.738;9.092;2023-04-05T08:03:35;96685.41;;;4.78;nan
23303;BME280;11820;48.738;9.092;2023-04-05T08:06:14;96688.19;;;4.85;nan
23303;BME280;11820;48.738;9.092;2023-04-05T08:08:43;96688.72;;;4.88;nan
23303;BME280;11820;48.738;9.092;2023-04-05T08:11:09;96684.81;;;4.84;nan
23303;BME280;11820;48.738;9.092;2023-04-05T08:13:35;96686.53;;;4.76;nan
23303;BME280;11820;48.738;9.092;2023-04-05T08:16:02;96691.19;;;4.98;nan
23303;BME280;11820;48.738;9.092;2023-04-05T08:18:28;96689.22;;;4.92;nan
23303;BME280;11820;48.738;9.092;2023-04-05T08:20:54;96689.66;;;5.05;nan
23303;BME280;11820;48.738;9.092;2023-04-05T08:23:20;96679.22;;;5.24;nan
23303;BME280;11820;48.738;9.092;2023-04-05T08:25:46;96685.53;;;5.12;nan
23303;BME280;11820;48.738;9.092;2023-04-05T08:28:11;96678.59;;;5.30;nan
23303;BME280;11820;48.738;9.092;2023-04-05T08:30:37;96681.38;;;5.36;nan
23303;BME280;11820;48.738;9.092;2023-04-05T08:33:03;96677.94;;;5.28;nan
23303;BME280;11820;48.738;9.092;2023-04-05T08:35:29;96675.00;;;5.40;nan
23303;BME280;11820;48.738;9.092;2023-04-05T08:37:54;96676.38;;;5.35;nan
23303;BME280;11820;48.738;9.092;2023-04-05T08:40:19;96681.91;;;5.48;nan
23303;BME280;11820;48.738;9.092;2023-04-05T08:42:47;96683.81;;;5.46;nan
23303;BME280;11820;48.738;9.092;2023-04-05T08:45:17;96688.53;;;5.58;nan
23303;BME280;11820;48.738;9.092;2023-04-05T08:47:44;96687.44;;;5.61;nan
23303;BME280;11820;48.738;9.092;2023-04-05T08:50:10;96690.38;;;5.74;nan
23303;BME280;11820;48.738;9.092;2023-04-05T08:52:38;96689.84;;;5.62;nan
23303;BME280;11820;48.738;9.092;2023-04-05T08:55:07;96688.31;;;5.77;nan
23303;BME280;11820;48.738;9.092;2023-04-05T08:57:36;96688.13;;;5.71;nan
23303;BME280;11820;48.738;9.092;2023-04-05T09:00:07;96675.41;;;5.87;nan
23303;BME280;11820;48.738;9.092;2023-04-05T09:02:33;96675.09;;;5.90;nan
23303;BME280;11820;48.738;9.092;2023-04-05T09:05:00;96680.56;;;5.95;nan
23303;BME280;11820;48.738;9.092;2023-04-05T09:07:28;96682.34;;;6.02;nan
23303;BME280;11820;48.738;9.092;2023-04-05T09:09:56;96678.00;;;5.95;nan
23303;BME280;11820;48.738;9.092;2023-04-05T09:12:24;96677.44;;;6.17;nan
23303;BME280;11820;48.738;9.092;2023-04-05T09:14:51;96679.22;;;6.24;nan
23303;BME280;11820;48.738;9.092;2023-04-05T09:17:17;96673.63;;;6.37;nan
23303;BME280;11820;48.738;9.092;2023-04-05T09:19:45;96683.84;;;6.21;nan
23303;BME280;11820;48.738;9.092;2023-04-05T09:22:14;96677.19;;;6.43;nan
23303;BME280;11820;48.738;9.092;2023-04-05T09:24:43;96675.44;;;6.52;nan
23303;BME280;11820;48.738;9.092;2023-04-05T09:27:17;96677.03;;;6.61;nan
23303;BME280;11820;48.738;9.092;2023-04-05T09:29:46;96676.56;;;6.57;nan
23303;BME280;11820;48.738;9.092;2023-04-05T09:32:13;96679.59;;;6.61;nan
23303;BME280;11820;48.738;9.092;2023-04-05T09:34:40;96675.78;;;6.81;nan
23303;BME280;11820;48.738;9.092;2023-04-05T09:39:38;96672.41;;;6.80;nan
23303;BME280;11820;48.738;9.092;2023-04-05T09:42:09;96675.31;;;6.85;nan
23303;BME280;11820;48.738;9.092;2023-04-05T09:44:56;96678.97;;;6.83;nan
23303;BME280;11820;48.738;9.092;2023-04-05T09:47:26;96672.25;;;7.06;nan
23303;BME280;11820;48.738;9.092;2023-04-05T09:49:56;96666.78;;;7.25;nan
23303;BME280;11820;48.738;9.092;2023-04-05T09:52:28;96663.72;;;7.21;nan
23303;BME280;11820;48.738;9.092;2023-04-05T09:54:57;96667.22;;;7.44;nan
23303;BME280;11820;48.738;9.092;2023-04-05T09:57:23;96669.31;;;7.41;nan
23303;BME280;11820;48.738;9.092;2023-04-05T09:59:53;96660.53;;;7.74;nan
23303;BME280;11820;48.738;9.092;2023-04-05T10:02:18;96668.16;;;7.51;nan
23303;BME280;11820;48.738;9.092;2023-04-05T10:04:45;96662.53;;;7.56;nan
23303;BME280;11820;48.738;9.092;2023-04-05T10:07:13;96658.69;;;7.52;nan
23303;BME280;11820;48.738;9.092;2023-04-05T10:09:39;96654.97;;;7.54;nan
23303;BME280;11820;48.738;9.092;2023-04-05T10:12:06;96653.16;;;7.71;nan
23303;BME280;11820;48.738;9.092;2023-04-05T10:14:34;96646.88;;;8.19;nan
23303;BME280;11820;48.738;9.092;2023-04-05T10:17:27;96646.22;;;8.09;nan
23303;BME280;11820;48.738;9.092;2023-04-05T10:25:17;96647.47;;;8.74;nan
23303;BME280;11820;48.738;9.092;2023-04-05T10:27:47;96642.75;;;8.33;nan
23303;BME280;11820;48.738;9.092;2023-04-05T10:30:15;96636.66;;;7.88;nan
23303;BME280;11820;48.738;9.092;2023-04-05T10:33:09;96637.13;;;8.60;nan
23303;BME280;11820;48.738;9.092;2023-04-05T10:39:04;96634.63;;;8.89;nan
23303;BME280;11820;48.738;9.092;2023-04-05T10:41:38;96625.00;;;9.20;nan
23303;BME280;11820;48.738;9.092;2023-04-05T10:44:08;96632.34;;;8.71;nan
23303;BME280;11820;48.738;9.092;2023-04-05T10:46:33;96633.84;;;9.40;nan
23303;BME280;11820;48.738;9.092;2023-04-05T10:49:09;96633.56;;;8.98;nan
23303;BME280;11820;48.738;9.092;2023-04-05T10:51:36;96633.97;;;9.24;nan
23303;BME280;11820;48.738;9.092;2023-04-05T10:54:02;96632.91;;;9.18;nan
23303;BME280;11820;48.738;9.092;2023-04-05T10:56:27;96635.34;;;9.49;nan
23303;BME280;11820;48.738;9.092;2023-04-05T10:58:54;96626.63;;;9.35;nan
23303;BME280;11820;48.738;9.092;2023-04-05T11:01:20;96627.16;;;9.74;nan
23303;BME280;11820;48.738;9.092;2023-04-05T11:03:47;96620.81;;;9.76;nan
23303;BME280;11820;48.738;9.092;2023-04-05T11:06:23;96621.53;;;9.85;nan
23303;BME280;11820;48.738;9.092;2023-04-05T11:08:52;96616.84;;;10.38;nan
23303;BME280;11820;48.738;9.092;2023-04-05T11:11:21;96614.50;;;10.64;nan
23303;BME280;11820;48.738;9.092;2023-04-05T11:13:54;96608.78;;;11.17;nan
23303;BME280;11820;48.738;9.092;2023-04-05T11:16:21;96611.28;;;12.06;nan
23303;BME280;11820;48.738;9.092;2023-04-05T11:18:48;96603.69;;;11.98;nan
23303;BME280;11820;48.738;9.092;2023-04-05T11:21:20;96597.09;;;12.68;nan
23303;BME280;11820;48.738;9.092;2023-04-05T11:24:01;96592.34;;;12.98;nan
23303;BME280;11820;48.738;9.092;2023-04-05T11:26:52;96590.72;;;13.35;nan
23303;BME280;11820;48.738;9.092;2023-04-05T11:29:17;96591.06;;;13.52;nan
23303;BME280;11820;48.738;9.092;2023-04-05T11:32:05;96593.31;;;13.42;nan
23303;BME280;11820;48.738;9.092;2023-04-05T11:34:35;96588.34;;;13.27;nan
23303;BME280;11820;48.738;9.092;2023-04-05T11:37:01;96578.03;;;14.28;nan
23303;BME280;11820;48.738;9.092;2023-04-05T11:39:27;96570.44;;;14.88;nan
23303;BME280;11820;48.738;9.092;2023-04-05T11:41:57;96572.00;;;14.96;nan
23303;BME280;11820;48.738;9.092;2023-04-05T11:44:23;96569.63;;;14.88;nan
23303;BME280;11820;48.738;9.092;2023-04-05T11:46:50;96568.50;;;14.53;nan
23303;BME280;11820;48.738;9.092;2023-04-05T11:49:15;96564.81;;;14.91;nan
23303;BME280;11820;48.738;9.092;2023-04-05T11:51:41;96564.47;;;15.06;nan
23303;BME280;11820;48.738;9.092;2023-04-05T11:54:33;96557.19;;;15.93;nan
23303;BME280;11820;48.738;9.092;2023-04-05T11:56:59;96559.50;;;16.01;nan
23303;BME280;11820;48.738;9.092;2023-04-05T11:59:32;96564.16;;;15.81;nan
23303;BME280;11820;48.738;9.092;2023-04-05T12:02:02;96560.09;;;16.03;nan
23303;BME280;11820;48.738;9.092;2023-04-05T12:04:33;96553.66;;;15.87;nan
23303;BME280;11820;48.738;9.092;2023-04-05T12:07:12;96547.78;;;16.21;nan
23303;BME280;11820;48.738;9.092;2023-04-05T12:12:22;96544.22;;;16.33;nan
23303;BME280;11820;48.738;9.092;2023-04-05T12:14:47;96541.91;;;15.96;nan
23303;BME280;11820;48.738;9.092;2023-04-05T12:17:13;96538.75;;;15.40;nan
23303;BME280;11820;48.738;9.092;2023-04-05T12:19:38;96545.41;;;16.20;nan
23303;BME280;11820;48.738;9.092;2023-04-05T12:22:04;96539.94;;;15.92;nan
23303;BME280;11820;48.738;9.092;2023-04-05T12:24:29;96528.91;;;16.08;nan
23303;BME280;11820;48.738;9.092;2023-04-05T12:26:55;96540.75;;;15.74;nan
23303;BME280;11820;48.738;9.092;2023-04-05T12:29:21;96541.50;;;15.21;nan
23303;BME280;11820;48.738;9.092;2023-04-05T12:31:49;96534.50;;;16.40;nan
23303;BME280;11820;48.738;9.092;2023-04-05T12:34:22;96533.94;;;16.38;nan
23303;BME280;11820;48.738;9.092;2023-04-05T12:36:48;96525.91;;;16.51;nan
23303;BME280;11820;48.738;9.092;2023-04-05T12:39:15;96526.28;;;15.42;nan
23303;BME280;11820;48.738;9.092;2023-04-05T12:41:41;96521.38;;;16.47;nan
23303;BME280;11820;48.738;9.092;2023-04-05T12:44:26;96515.41;;;18.00;nan
23303;BME280;11820;48.738;9.092;2023-04-05T12:47:01;96515.44;;;19.06;nan
23303;BME280;11820;48.738;9.092;2023-04-05T12:49:27;96514.78;;;18.49;nan
23303;BME280;11820;48.738;9.092;2023-04-05T12:51:53;96510.66;;;17.12;nan
23303;BME280;11820;48.738;9.092;2023-04-05T12:54:22;96504.97;;;17.27;nan
23303;BME280;11820;48.738;9.092;2023-04-05T12:56:52;96509.88;;;16.19;nan
23303;BME280;11820;48.738;9.092;2023-04-05T12:59:19;96511.13;;;16.34;nan
23303;BME280;11820;48.738;9.092;2023-04-05T13:01:44;96517.19;;;15.99;nan
23303;BME280;11820;48.738;9.092;2023-04-05T13:04:10;96509.13;;;15.71;nan
23303;BME280;11820;48.738;9.092;2023-04-05T13:06:35;96498.06;;;17.83;nan
23303;BME280;11820;48.738;9.092;2023-04-05T13:09:00;96484.88;;;21.03;nan
23303;BME280;11820;48.738;9.092;2023-04-05T13:11:26;96471.06;;;25.08;nan
23303;BME280;11820;48.738;9.092;2023-04-05T13:13:52;96475.91;;;23.61;nan
23303;BME280;11820;48.738;9.092;2023-04-05T13:16:17;96485.91;;;19.69;nan
23303;BME280;11820;48.738;9.092;2023-04-05T13:18:42;96490.78;;;17.85;nan
23303;BME280;11820;48.738;9.092;2023-04-05T13:21:08;96493.09;;;17.98;nan
23303;BME280;11820;48.738;9.092;2023-04-05T13:23:36;96481.88;;;18.42;nan
23303;BME280;11820;48.738;9.092;2023-04-05T13:26:02;96472.84;;;18.82;nan
23303;BME280;11820;48.738;9.092;2023-04-05T13:28:28;96470.88;;;19.86;nan
23303;BME280;11820;48.738;9.092;2023-04-05T13:30:53;96445.19;;;23.12;nan
23303;BME280;11820;48.738;9.092;2023-04-05T13:33:19;96457.84;;;23.93;nan
23303;BME280;11820;48.738;9.092;2023-04-05T13:35:45;96463.84;;;21.03;nan
23303;BME280;11820;48.738;9.092;2023-04-05T13:38:11;96470.53;;;19.19;nan
23303;BME280;11820;48.738;9.092;2023-04-05T13:40:36;96466.06;;;19.36;nan
23303;BME280;11820;48.738;9.092;2023-04-05T13:43:02;96468.34;;;18.17;nan
23303;BME280;11820;48.738;9.092;2023-04-05T13:45:27;96463.75;;;17.68;nan
23303;BME280;11820;48.738;9.092;2023-04-05T13:47:53;96459.78;;;18.21;nan
23303;BME280;11820;48.738;9.092;2023-04-05T13:50:18;96453.25;;;18.85;nan
23303;BME280;11820;48.738;9.092;2023-04-05T13:52:43;96452.03;;;19.68;nan
23303;BME280;11820;48.738;9.092;2023-04-05T13:55:09;96449.22;;;20.22;nan
23303;BME280;11820;48.738;9.092;2023-04-05T13:57:34;96433.56;;;24.29;nan